Time;durP1;ratioP1;P1;durP2;ratioP2;P2;SDS_P1;SDS_P2;PMS_P1;PMS_P2;Temp;Humidity;BMP_temperature;BMP_pressure;BME280_temperature;BME280_humidity;BME280_pressure;Samples;Min_cycle;Max_cycle;Signal;HPM_P1;HPM_P2
2021/08/26 00:06:28;;;;;;;19.98;17.92;;;;;;;19.25;100.00;100559.14;1661418;83;21223;-88
2021/08/26 00:08:55;;;;;;;24.57;18.52;;;;;;;19.22;100.00;100558.99;1663439;85;21070;-89
2021/08/26 00:11:24;;;;;;;21.20;18.42;;;;;;;19.17;100.00;100552.91;1679464;83;21051;-83
2021/08/26 00:14:11;;;;;;;21.48;18.42;;;;;;;19.14;100.00;100549.29;1684462;77;21043;-84
2021/08/26 00:16:41;;;;;;;19.77;17.67;;;;;;;19.13;100.00;100553.43;1725863;81;21621;-86
2021/08/26 00:19:09;;;;;;;21.17;18.32;;;;;;;19.09;100.00;100554.28;1682466;82;21855;-85
2021/08/26 00:21:36;;;;;;;20.95;18.37;;;;;;;19.05;100.00;100550.32;1708183;82;21704;-85
2021/08/26 00:24:03;;;;;;;22.17;18.17;;;;;;;19.03;100.00;100555.78;1712057;82;21098;-87
2021/08/26 00:26:32;;;;;;;22.73;18.20;;;;;;;18.99;100.00;100553.66;1682280;83;21536;-85
2021/08/26 00:29:02;;;;;;;22.52;17.75;;;;;;;18.91;100.00;100559.75;1678994;84;21138;-86
2021/08/26 00:31:30;;;;;;;;;;;;;;;18.86;100.00;100556.33;1657680;84;21947;-84
2021/08/26 00:33:57;;;;;;;18.62;16.73;;;;;;;18.87;100.00;100561.91;1706639;82;20156;-86
2021/08/26 00:36:25;;;;;;;22.90;17.40;;;;;;;18.87;100.00;100558.46;1698044;83;21000;-86
2021/08/26 00:38:52;;;;;;;24.20;18.57;;;;;;;18.87;100.00;100561.91;1700239;82;21010;-85
2021/08/26 00:41:20;;;;;;;20.82;17.70;;;;;;;18.89;100.00;100564.39;1720680;82;21073;-85
2021/08/26 00:43:47;;;;;;;18.52;16.62;;;;;;;18.89;100.00;100562.56;1700768;82;21076;-84
2021/08/26 00:46:15;;;;;;;19.27;17.27;;;;;;;18.89;100.00;100568.36;1697460;82;21056;-86
2021/08/26 00:48:50;;;;;;;21.82;18.32;;;;;;;18.85;100.00;100563.08;1685988;83;20995;-84
2021/08/26 00:51:17;;;;;;;21.70;18.50;;;;;;;18.85;100.00;100568.36;1692691;82;21428;-87
2021/08/26 00:53:45;;;;;;;22.17;19.77;;;;;;;18.86;100.00;100569.52;1685809;83;21603;-85
2021/08/26 00:56:16;;;;;;;21.15;18.98;;;;;;;18.84;100.00;100571.50;1708405;82;21808;-85
2021/08/26 00:58:48;;;;;;;;;;;;;;;18.72;100.00;100571.05;1681251;82;21153;-86
2021/08/26 01:01:18;;;;;;;;;;;;;;;18.68;100.00;100566.28;1685865;83;20200;-84
2021/08/26 01:03:56;;;;;;;20.95;18.57;;;;;;;18.67;100.00;100565.95;1684500;82;20176;-84
2021/08/26 01:06:29;;;;;;;23.15;19.80;;;;;;;18.69;100.00;100563.98;1682777;82;21058;-87
2021/08/26 01:09:09;;;;;;;22.90;20.45;;;;;;;18.69;100.00;100559.51;1703341;82;20966;-85
2021/08/26 01:11:38;;;;;;;24.47;18.98;;;;;;;18.65;100.00;100558.70;1691329;83;21149;-86
2021/08/26 01:14:11;;;;;;;;;;;;;;;18.58;100.00;100567.30;1628432;86;21027;-87
2021/08/26 01:16:39;;;;;;;21.97;19.70;;;;;;;18.50;100.00;100560.72;1648530;86;20129;-83
2021/08/26 01:19:07;;;;;;;22.73;20.30;;;;;;;18.48;100.00;100568.48;1659580;85;21748;-83
2021/08/26 01:21:34;;;;;;;23.10;20.60;;;;;;;18.49;100.00;100568.30;1709070;82;21877;-83
2021/08/26 01:24:05;;;;;;;31.90;21.12;;;;;;;18.51;100.00;100567.64;1682649;83;21600;-84
2021/08/26 01:26:51;;;;;;;26.48;21.30;;;;;;;18.56;100.00;100573.73;1681207;83;20998;-85
2021/08/26 01:29:20;;;;;;;28.15;21.15;;;;;;;18.59;100.00;100573.38;1679558;83;21552;-85
2021/08/26 01:31:48;;;;;;;24.63;20.88;;;;;;;18.66;100.00;100570.89;1682650;82;21157;-84
2021/08/26 01:34:18;;;;;;;28.47;20.90;;;;;;;18.71;100.00;100564.12;1691850;82;21070;-86
2021/08/26 01:36:47;;;;;;;24.02;21.48;;;;;;;18.72;100.00;100562.30;1691204;83;21133;-85
2021/08/26 01:39:17;;;;;;;25.10;20.72;;;;;;;18.68;100.00;100568.41;1714921;82;21109;-85
2021/08/26 01:41:50;;;;;;;25.97;21.33;;;;;;;18.65;100.00;100566.61;1688780;83;21075;-85
2021/08/26 01:44:22;;;;;;;25.97;21.17;;;;;;;18.63;100.00;100563.34;1682531;83;21564;-85
2021/08/26 01:46:53;;;;;;;32.95;21.95;;;;;;;18.60;100.00;100565.80;1715842;80;21105;-86
2021/08/26 01:49:21;;;;;;;24.82;21.15;;;;;;;18.58;100.00;100563.84;1672136;83;21512;-85
2021/08/26 01:51:48;;;;;;;24.20;20.52;;;;;;;18.52;100.00;100566.66;1690994;81;21075;-85
2021/08/26 01:54:15;;;;;;;25.00;22.05;;;;;;;18.42;100.00;100565.53;1656782;84;21080;-86
2021/08/26 01:56:42;;;;;;;25.48;22.87;;;;;;;18.29;100.00;100564.73;1657565;85;21122;-86
2021/08/26 01:59:09;;;;;;;27.37;22.02;;;;;;;18.20;100.00;100565.73;1690490;83;21792;-85
2021/08/26 02:01:36;;;;;;;24.25;21.70;;;;;;;18.15;100.00;100567.22;1681700;84;21073;-85
2021/08/26 02:04:04;;;;;;;27.67;22.55;;;;;;;18.11;100.00;100572.00;1654885;85;21066;-84
2021/08/26 02:06:31;;;;;;;27.65;22.77;;;;;;;18.04;100.00;100566.55;1708678;82;21092;-86
2021/08/26 02:08:58;;;;;;;26.70;23.62;;;;;;;17.94;100.00;100568.02;1672021;83;21161;-86
2021/08/26 02:11:25;;;;;;;28.92;23.52;;;;;;;17.91;100.00;100571.47;1685048;84;21117;-85
2021/08/26 02:13:54;;;;;;;26.95;23.62;;;;;;;17.87;100.00;100572.30;1682817;83;21049;-85
2021/08/26 02:16:21;;;;;;;29.80;24.12;;;;;;;17.85;100.00;100572.95;1680265;84;21229;-85
2021/08/26 02:18:48;;;;;;;29.75;24.20;;;;;;;17.84;100.00;100576.56;1655291;85;21596;-87
2021/08/26 02:21:15;;;;;;;29.05;24.02;;;;;;;17.80;100.00;100573.44;1658091;84;21066;-86
2021/08/26 02:23:42;;;;;;;28.02;24.07;;;;;;;17.75;100.00;100574.44;1655253;84;21066;-86
2021/08/26 02:26:09;;;;;;;26.48;23.57;;;;;;;17.65;100.00;100574.59;1655053;85;21098;-86
2021/08/26 02:28:36;;;;;;;26.90;23.90;;;;;;;17.60;100.00;100578.70;1654801;85;21026;-85
2021/08/26 02:31:03;;;;;;;28.67;25.62;;;;;;;17.54;100.00;100575.41;1655954;85;21063;-85
2021/08/26 02:33:31;;;;;;;29.23;24.65;;;;;;;17.57;100.00;100577.69;1656058;85;21085;-85
2021/08/26 02:35:58;;;;;;;27.37;23.65;;;;;;;17.57;100.00;100573.27;1679887;84;21544;-86
2021/08/26 02:38:25;;;;;;;28.20;25.08;;;;;;;17.55;100.00;100575.23;1648498;84;21130;-86
2021/08/26 02:40:52;;;;;;;30.72;25.52;;;;;;;17.52;100.00;100576.05;1674951;83;21081;-85
2021/08/26 02:43:18;;;;;;;29.70;25.65;;;;;;;17.48;100.00;100572.92;1675710;83;21212;-86
2021/08/26 02:45:46;;;;;;;31.73;28.10;;;;;;;17.41;100.00;100575.87;1678991;84;21128;-85
2021/08/26 02:48:13;;;;;;;30.92;26.90;;;;;;;17.29;100.00;100574.84;1685341;84;21769;-86
2021/08/26 02:50:40;;;;;;;41.15;29.60;;;;;;;17.15;100.00;100575.46;1654694;85;21581;-85
2021/08/26 02:53:07;;;;;;;38.55;28.98;;;;;;;17.02;100.00;100568.02;1654563;85;21101;-88
2021/08/26 02:55:34;;;;;;;42.53;31.93;;;;;;;16.91;100.00;100571.73;1654980;85;21043;-85
2021/08/26 02:58:01;;;;;;;41.18;30.85;;;;;;;16.84;100.00;100569.40;1655918;84;21605;-85
2021/08/26 03:00:28;;;;;;;39.38;31.50;;;;;;;16.77;100.00;100574.95;1682073;84;21180;-87
2021/08/26 03:02:54;;;;;;;40.23;31.07;;;;;;;16.74;100.00;100576.57;1655197;85;21572;-85
2021/08/26 03:05:21;;;;;;;41.00;32.25;;;;;;;16.74;100.00;100579.20;1654841;85;21117;-84
2021/08/26 03:07:48;;;;;;;41.90;32.98;;;;;;;16.63;100.00;100569.78;1655144;85;21067;-85
2021/08/26 03:10:15;;;;;;;49.35;33.60;;;;;;;16.52;100.00;100569.06;1683355;83;21049;-86
2021/08/26 03:12:42;;;;;;;40.50;33.23;;;;;;;16.46;100.00;100570.19;1665355;82;21635;-86
2021/08/26 03:15:09;;;;;;;40.25;30.75;;;;;;;16.35;100.00;100568.63;1697180;83;21129;-85
2021/08/26 03:17:36;;;;;;;40.52;32.60;;;;;;;16.24;100.00;100569.23;1713956;83;21070;-85
2021/08/26 03:20:04;;;;;;;37.00;29.98;;;;;;;16.17;100.00;100568.20;1681982;83;21623;-86
2021/08/26 03:22:31;;;;;;;37.13;32.03;;;;;;;16.15;100.00;100567.99;1692366;83;21591;-86
2021/08/26 03:24:58;;;;;;;42.98;32.00;;;;;;;16.14;100.00;100565.05;1682354;83;21057;-86
2021/08/26 03:27:25;;;;;;;39.73;32.50;;;;;;;16.17;100.00;100569.98;1682916;83;21035;-84
2021/08/26 03:29:54;;;;;;;43.15;33.45;;;;;;;16.19;100.00;100569.35;1686388;83;21589;-86
2021/08/26 03:32:21;;;;;;;46.53;32.95;;;;;;;16.19;100.00;100570.16;1655170;85;21131;-87
2021/08/26 03:34:53;;;;;;;47.50;33.92;;;;;;;16.17;100.00;100567.36;1688173;83;21105;-87
2021/08/26 03:37:22;;;;;;;43.20;32.75;;;;;;;16.16;100.00;100570.48;1684412;83;21106;-90
2021/08/26 03:39:50;;;;;;;48.38;33.18;;;;;;;16.17;100.00;100567.36;1680405;82;20969;-90
2021/08/26 03:42:17;;;;;;;42.67;32.95;;;;;;;16.18;100.00;100567.23;1697173;83;21120;-87
2021/08/26 03:44:45;;;;;;;48.10;33.00;;;;;;;16.19;100.00;100568.03;1690795;83;21025;-87
2021/08/26 03:47:12;;;;;;;39.35;31.55;;;;;;;16.21;100.00;100572.66;1695280;82;21085;-87
2021/08/26 03:49:39;;;;;;;43.28;31.93;;;;;;;16.20;100.00;100564.44;1693858;83;21121;-87
2021/08/26 03:52:08;;;;;;;42.30;32.88;;;;;;;16.23;100.00;100568.05;1719212;81;21091;-86
2021/08/26 03:54:37;;;;;;;43.28;31.93;;;;;;;16.25;100.00;100575.30;1717718;82;21211;-85
2021/08/26 03:57:04;;;;;;;45.55;32.08;;;;;;;16.24;100.00;100565.29;1690973;82;20993;-88
2021/08/26 03:59:31;;;;;;;44.83;32.00;;;;;;;16.24;100.00;100568.39;1686985;83;21631;-89
2021/08/26 04:01:58;;;;;;;46.77;32.17;;;;;;;16.25;100.00;100567.41;1671322;83;20994;-86
2021/08/26 04:04:26;;;;;;;40.80;32.58;;;;;;;16.27;100.00;100569.41;1684373;83;21121;-90
2021/08/26 04:06:53;;;;;;;38.90;31.25;;;;;;;16.28;100.00;100566.28;1711234;82;21105;-86
2021/08/26 04:09:20;;;;;;;41.23;31.87;;;;;;;16.30;100.00;100567.80;1710518;82;21077;-86
2021/08/26 04:11:47;;;;;;;39.95;31.93;;;;;;;16.32;100.00;100569.76;1687541;83;21922;-85
2021/08/26 04:14:14;;;;;;;38.08;30.72;;;;;;;16.34;100.00;100568.31;1688481;83;21077;-86
2021/08/26 04:16:43;;;;;;;42.65;31.23;;;;;;;16.37;100.00;100569.30;1698048;82;21135;-88
2021/08/26 04:19:10;;;;;;;35.90;30.32;;;;;;;16.40;100.00;100572.44;1652392;85;21096;-87
2021/08/26 04:21:38;;;;;;;39.27;31.48;;;;;;;16.45;100.00;100564.59;1644749;85;21487;-86
2021/08/26 04:24:16;;;;;;;36.10;28.95;;;;;;;16.51;100.00;100563.97;1624139;84;21150;-87
2021/08/26 04:26:38;;;;;;;37.88;28.23;;;;;;;16.56;100.00;100572.20;1636687;84;21898;-84
2021/08/26 04:29:05;;;;;;;35.00;28.85;;;;;;;16.65;100.00;100566.02;1646283;85;21154;-86
2021/08/26 04:31:33;;;;;;;36.30;29.25;;;;;;;16.73;100.00;100569.19;1649278;84;21117;-88
2021/08/26 04:34:00;;;;;;;32.10;27.27;;;;;;;16.79;100.00;100566.40;1706434;82;21474;-87
2021/08/26 04:36:27;;;;;;;32.90;28.10;;;;;;;16.86;100.00;100566.94;1713051;81;21165;-88
2021/08/26 04:38:54;;;;;;;31.90;27.90;;;;;;;16.93;100.00;100568.48;1684453;83;21113;-90
2021/08/26 04:41:22;;;;;;;35.83;27.00;;;;;;;17.01;100.00;100571.63;1674531;81;21096;-86
2021/08/26 04:43:49;;;;;;;35.85;28.12;;;;;;;17.12;100.00;100571.83;1693908;83;21158;-88
2021/08/26 04:46:16;;;;;;;30.85;26.15;;;;;;;17.18;100.00;100569.39;1718695;82;21056;-89
2021/08/26 04:48:45;;;;;;;29.37;25.25;;;;;;;17.26;100.00;100573.86;1669692;83;21338;-87
2021/08/26 04:51:12;;;;;;;30.02;25.02;;;;;;;17.34;100.00;100572.57;1684790;82;21097;-88
2021/08/26 04:53:39;;;;;;;28.65;24.70;;;;;;;17.43;100.00;100572.56;1684789;83;21145;-88
2021/08/26 04:56:06;;;;;;;27.10;24.10;;;;;;;17.51;100.00;100573.89;1674832;84;21094;-87
2021/08/26 04:58:32;;;;;;;32.30;25.48;;;;;;;17.61;100.00;100569.81;1672373;84;21604;-88
2021/08/26 05:00:59;;;;;;;32.25;26.10;;;;;;;17.71;100.00;100568.34;1673967;84;21106;-85
2021/08/26 05:03:26;;;;;;;26.42;23.22;;;;;;;17.81;100.00;100563.23;1703806;84;21128;-87
2021/08/26 05:05:53;;;;;;;27.60;23.55;;;;;;;17.93;100.00;100570.31;1681316;84;21039;-87
2021/08/26 05:08:20;;;;;;;28.20;23.98;;;;;;;18.06;100.00;100567.22;1681354;83;21022;-85
2021/08/26 05:10:47;;;;;;;27.05;22.85;;;;;;;18.15;100.00;100573.30;1675510;84;21876;-86
2021/08/26 05:13:14;;;;;;;25.85;23.12;;;;;;;18.21;100.00;100568.70;1692367;84;21118;-87
2021/08/26 05:15:41;;;;;;;33.05;23.55;;;;;;;18.27;100.00;100571.98;1698968;84;21136;-84
2021/08/26 05:18:08;;;;;;;28.15;22.00;;;;;;;18.37;100.00;100570.98;1679334;83;21018;-88
2021/08/26 05:20:36;;;;;;;29.27;23.40;;;;;;;18.43;100.00;100572.94;1680005;83;21196;-87
2021/08/26 05:23:03;;;;;;;27.70;23.98;;;;;;;18.48;100.00;100575.88;1657920;85;21611;-87
2021/08/26 05:25:30;;;;;;;26.40;23.42;;;;;;;18.52;100.00;100579.84;1686368;83;20986;-89
2021/08/26 05:27:57;;;;;;;24.37;21.77;;;;;;;18.58;100.00;100574.39;1689210;83;21737;-86
2021/08/26 05:30:24;;;;;;;26.30;22.50;;;;;;;18.62;100.00;100566.97;1676686;83;21061;-90
2021/08/26 05:32:51;;;;;;;33.60;22.62;;;;;;;18.67;100.00;100566.77;1688036;83;21588;-86
2021/08/26 05:35:20;;;;;;;24.82;21.85;;;;;;;18.72;100.00;100567.57;1683249;83;21596;-88
2021/08/26 05:37:47;;;;;;;23.50;20.85;;;;;;;18.79;100.00;100565.89;1682360;83;21054;-86
2021/08/26 05:40:14;;;;;;;25.32;20.52;;;;;;;18.87;100.00;100567.19;1682781;83;21047;-87
2021/08/26 05:42:41;;;;;;;22.48;19.82;;;;;;;18.94;100.00;100569.19;1682415;83;21067;-88
2021/08/26 05:45:09;;;;;;;26.05;19.75;;;;;;;19.00;100.00;100568.50;1707297;83;21719;-88
2021/08/26 05:47:36;;;;;;;24.40;20.27;;;;;;;19.05;100.00;100564.84;1712264;82;21065;-89
2021/08/26 05:50:04;;;;;;;24.98;19.50;;;;;;;19.12;100.00;100561.02;1691374;82;21102;-88
2021/08/26 05:52:31;;;;;;;28.57;20.72;;;;;;;19.18;100.00;100555.05;1714655;81;21085;-87
2021/08/26 05:54:58;;;;;;;28.50;20.40;;;;;;;19.26;100.00;100552.87;1683399;82;20975;-86
2021/08/26 05:57:25;;;;;;;24.20;18.55;;;;;;;19.33;100.00;100553.81;1709252;82;21074;-87
2021/08/26 05:59:53;;;;;;;23.87;19.02;;;;;;;19.43;100.00;100553.06;1713150;83;21537;-88
2021/08/26 06:02:20;;;;;;;23.85;17.55;;;;;;;19.51;100.00;100553.02;1682703;84;21149;-89
2021/08/26 06:04:47;;;;;;;19.27;16.25;;;;;;;19.61;100.00;100549.31;1683151;83;21151;-87
2021/08/26 06:07:14;;;;;;;21.33;17.73;;;;;;;19.73;100.00;100551.88;1682648;83;21632;-88
2021/08/26 06:09:41;;;;;;;20.35;16.50;;;;;;;19.86;100.00;100548.16;1680717;83;21046;-84
2021/08/26 06:12:09;;;;;;;21.25;16.70;;;;;;;20.01;100.00;100544.25;1673002;82;21145;-84
2021/08/26 06:14:36;;;;;;;20.20;17.67;;;;;;;20.16;100.00;100542.13;1685233;83;21663;-88
2021/08/26 06:17:03;;;;;;;18.55;16.55;;;;;;;20.31;100.00;100542.15;1684634;83;21117;-85
2021/08/26 06:19:30;;;;;;;18.85;16.42;;;;;;;20.46;100.00;100545.62;1683363;83;21643;-89
2021/08/26 06:21:57;;;;;;;19.87;16.48;;;;;;;20.61;100.00;100543.47;1681383;83;21090;-88
2021/08/26 06:24:24;;;;;;;17.35;15.55;;;;;;;20.77;100.00;100541.14;1658280;84;20999;-85
2021/08/26 06:26:51;;;;;;;17.67;14.13;;;;;;;20.92;100.00;100545.91;1633711;86;21104;-87
2021/08/26 06:29:20;;;;;;;16.62;14.93;;;;;;;21.08;100.00;100543.56;1652664;84;21157;-89
2021/08/26 06:31:48;;;;;;;16.95;15.15;;;;;;;21.23;100.00;100547.98;1683888;82;21092;-84
2021/08/26 06:34:15;;;;;;;17.00;14.43;;;;;;;21.36;100.00;100547.31;1652153;84;21469;-87
2021/08/26 06:36:42;;;;;;;18.12;14.70;;;;;;;21.48;100.00;100548.95;1626797;85;21081;-87
2021/08/26 06:39:09;;;;;;;16.10;14.07;;;;;;;21.60;100.00;100551.42;1686394;83;21073;-86
2021/08/26 06:41:36;;;;;;;14.63;12.88;;;;;;;21.74;100.00;100547.07;1654207;83;21812;-86
2021/08/26 06:44:04;;;;;;;13.78;11.70;;;;;;;21.86;100.00;100542.08;1653824;84;21121;-86
2021/08/26 06:46:31;;;;;;;11.30;9.90;;;;;;;22.00;100.00;100537.19;1651998;84;21138;-87
2021/08/26 06:48:59;;;;;;;13.58;10.05;;;;;;;22.15;100.00;100533.63;1711352;81;21055;-84
2021/08/26 06:51:26;;;;;;;10.25;9.25;;;;;;;22.30;100.00;100536.16;1682248;82;21153;-83
2021/08/26 06:53:54;;;;;;;10.70;9.60;;;;;;;22.44;100.00;100534.44;1653317;83;21078;-85
2021/08/26 06:56:21;;;;;;;11.60;9.73;;;;;;;22.59;100.00;100540.95;1634778;83;21564;-86
2021/08/26 06:58:48;;;;;;;11.65;9.65;;;;;;;22.74;100.00;100538.14;1652973;84;21114;-84
2021/08/26 07:01:15;;;;;;;11.25;10.03;;;;;;;22.87;100.00;100540.88;1680217;83;21117;-83
2021/08/26 07:03:42;;;;;;;10.08;9.08;;;;;;;22.98;100.00;100542.94;1685128;83;21023;-85
2021/08/26 07:06:09;;;;;;;10.85;9.03;;;;;;;23.08;100.00;100547.86;1658557;82;21102;-86
2021/08/26 07:08:37;;;;;;;10.28;9.18;;;;;;;23.19;100.00;100545.19;1672309;82;21098;-86
2021/08/26 07:11:05;;;;;;;10.85;9.10;;;;;;;23.28;100.00;100542.63;1678589;83;21569;-86
2021/08/26 07:13:33;;;;;;;10.93;8.85;;;;;;;23.39;100.00;100545.72;1676196;83;21063;-85
2021/08/26 07:16:00;;;;;;;10.05;9.15;;;;;;;23.50;100.00;100536.33;1709802;81;21082;-86
2021/08/26 07:18:28;;;;;;;11.63;9.10;;;;;;;23.58;100.00;100534.80;1687064;82;21621;-86
2021/08/26 07:20:56;;;;;;;11.97;9.38;;;;;;;23.68;100.00;100527.25;1694931;81;20975;-86
2021/08/26 07:23:23;;;;;;;10.25;9.15;;;;;;;23.82;100.00;100526.75;1660115;83;21105;-86
2021/08/26 07:25:50;;;;;;;11.10;9.70;;;;;;;23.99;100.00;100529.02;1665494;83;21044;-88
2021/08/26 07:28:17;;;;;;;11.05;9.40;;;;;;;24.10;100.00;100525.70;1683354;82;21224;-86
2021/08/26 07:30:44;;;;;;;10.40;9.38;;;;;;;24.21;100.00;100522.92;1680263;83;21597;-85
2021/08/26 07:33:11;;;;;;;14.03;9.35;;;;;;;24.34;100.00;100519.41;1712014;82;21087;-86
2021/08/26 07:35:38;;;;;;;11.68;9.38;;;;;;;24.44;100.00;100517.14;1681553;82;21050;-89
2021/08/26 07:38:05;;;;;;;12.60;9.68;;;;;;;24.53;100.00;100515.89;1682694;83;21094;-86
2021/08/26 07:40:32;;;;;;;10.50;9.50;;;;;;;24.65;100.00;100513.88;1683789;82;21145;-87
2021/08/26 07:43:00;;;;;;;10.75;9.73;;;;;;;24.75;100.00;100508.95;1630635;84;21113;-86
2021/08/26 07:45:28;;;;;;;10.70;9.60;;;;;;;24.86;100.00;100516.29;1635660;86;21026;-84
2021/08/26 07:47:55;;;;;;;10.40;9.25;;;;;;;24.99;100.00;100514.58;1632101;83;21058;-84
2021/08/26 07:50:22;;;;;;;10.45;9.38;;;;;;;25.11;100.00;100515.54;1630271;85;21618;-87
2021/08/26 07:52:49;;;;;;;12.07;9.98;;;;;;;25.23;100.00;100506.84;1680556;82;21180;-86
2021/08/26 07:55:16;;;;;;;11.12;9.50;;;;;;;25.38;100.00;100507.34;1653351;85;22692;-87
2021/08/26 07:57:43;;;;;;;10.38;9.35;;;;;;;25.51;100.00;100506.47;1673090;83;21528;-88
2021/08/26 08:00:11;;;;;;;10.63;9.65;;;;;;;25.62;100.00;100507.60;1683530;83;21137;-86
2021/08/26 08:02:38;;;;;;;11.28;9.80;;;;;;;25.73;100.00;100508.23;1659556;83;21121;-85
2021/08/26 08:05:06;;;;;;;11.25;10.08;;;;;;;25.82;100.00;100502.93;1682721;82;21026;-88
2021/08/26 08:07:33;;;;;;;9.65;8.65;;;;;;;25.94;100.00;100500.86;1677998;82;21089;-86
2021/08/26 08:10:00;;;;;;;10.58;9.48;;;;;;;26.07;100.00;100502.08;1676854;82;21062;-88
2021/08/26 08:12:27;;;;;;;10.82;9.63;;;;;;;26.20;99.15;100490.98;1681402;83;21043;-87
2021/08/26 08:14:54;;;;;;;13.98;9.25;;;;;;;26.30;98.79;100488.61;1704905;82;21027;-87
2021/08/26 08:17:22;;;;;;;11.73;9.10;;;;;;;26.41;100.00;100495.86;1710788;81;21062;-86
2021/08/26 08:19:49;;;;;;;12.37;9.90;;;;;;;26.54;94.76;100488.74;1677952;82;21830;-88
2021/08/26 08:22:16;;;;;;;14.05;8.95;;;;;;;26.65;95.15;100491.97;1683019;83;21026;-88
2021/08/26 08:24:43;;;;;;;12.73;10.00;;;;;;;26.78;99.10;100484.87;1683464;82;21040;-90
2021/08/26 08:27:11;;;;;;;12.03;9.80;;;;;;;26.91;97.92;100489.52;1687866;82;21597;-85
2021/08/26 08:29:39;;;;;;;10.63;9.53;;;;;;;27.04;97.47;100487.14;1690906;81;20977;-84
2021/08/26 08:32:06;;;;;;;13.18;9.68;;;;;;;27.15;91.75;100484.73;1686281;83;21030;-91
2021/08/26 08:34:33;;;;;;;10.35;9.35;;;;;;;27.18;89.54;100485.09;1652186;84;21565;-87
2021/08/26 08:37:02;;;;;;;9.70;8.63;;;;;;;27.19;90.95;100480.05;1678461;81;21086;-88
2021/08/26 08:39:29;;;;;;;9.88;8.88;;;;;;;27.25;88.85;100474.31;1686634;82;21058;-88
2021/08/26 08:41:56;;;;;;;10.08;8.88;;;;;;;27.34;89.68;100470.27;1712232;81;21037;-84
2021/08/26 08:44:23;;;;;;;10.00;8.65;;;;;;;27.40;88.03;100470.67;1709073;81;21660;-88
2021/08/26 08:46:54;;;;;;;10.03;8.95;;;;;;;27.46;76.39;100468.97;1653098;84;21074;-89
2021/08/26 08:49:22;;;;;;;12.75;9.65;;;;;;;27.52;83.09;100471.24;1674665;82;21102;-90
2021/08/26 08:51:54;;;;;;;9.63;7.92;;;;;;;27.57;83.04;100467.84;1684365;81;21053;-88
2021/08/26 08:54:23;;;;;;;11.15;8.25;;;;;;;27.64;81.28;100465.36;1721890;81;21572;-86
2021/08/26 08:56:52;;;;;;;10.10;8.25;;;;;;;27.75;77.55;100460.25;1688435;81;21122;-87
2021/08/26 08:59:19;;;;;;;12.00;8.35;;;;;;;27.81;79.56;100462.78;1689969;81;21568;-87
2021/08/26 09:01:53;;;;;;;9.65;8.48;;;;;;;27.90;80.02;100471.28;1653562;84;21224;-85
2021/08/26 09:04:22;;;;;;;8.68;7.78;;;;;;;28.01;82.80;100466.42;1681457;82;21105;-84
2021/08/26 09:06:51;;;;;;;8.63;7.72;;;;;;;28.12;68.40;100463.46;1713469;81;21058;-89
2021/08/26 09:09:20;;;;;;;10.45;7.45;;;;;;;28.20;64.97;100467.64;1661220;82;21066;-87
2021/08/26 09:11:56;;;;;;;9.65;8.48;;;;;;;28.25;66.01;100467.73;1681440;81;21046;-87
2021/08/26 09:14:26;;;;;;;9.90;8.08;;;;;;;28.30;65.16;100465.19;1703503;82;21030;-90
2021/08/26 09:16:57;;;;;;;9.48;8.13;;;;;;;28.30;65.55;100459.83;1678785;83;21007;-86
2021/08/26 09:19:31;;;;;;;9.88;7.92;;;;;;;28.32;64.31;100455.03;1701966;81;21626;-86
2021/08/26 09:22:01;;;;;;;8.50;7.50;;;;;;;28.42;68.54;100458.45;1710842;81;21347;-89
2021/08/26 09:24:47;;;;;;;9.55;7.83;;;;;;;28.55;66.55;100456.53;1667217;81;21077;-88
2021/08/26 09:27:42;;;;;;;8.95;7.75;;;;;;;28.68;66.45;100455.43;1668741;81;21078;-86
2021/08/26 09:30:14;;;;;;;9.33;7.67;;;;;;;28.71;57.08;100442.40;1670169;84;20995;-90
2021/08/26 09:32:45;;;;;;;11.88;7.95;;;;;;;28.67;57.53;100445.25;1658907;84;21119;-86
2021/08/26 09:35:24;;;;;;;;;;;;;;;28.52;56.24;100446.31;1683102;82;21106;-87
2021/08/26 09:37:58;;;;;;;8.48;7.22;;;;;;;28.30;57.77;100450.97;1680201;83;20196;-87
2021/08/26 09:40:32;;;;;;;11.60;7.33;;;;;;;28.15;61.13;100455.51;1685550;83;21022;-87
2021/08/26 09:43:05;;;;;;;9.35;7.67;;;;;;;28.16;64.79;100450.45;1659726;82;21145;-88
2021/08/26 09:45:38;;;;;;;9.55;8.53;;;;;;;28.28;67.21;100441.84;1712681;81;21096;-88
2021/08/26 09:48:14;;;;;;;9.10;8.30;;;;;;;28.44;68.07;100443.48;1679595;83;21910;-92
2021/08/26 09:50:53;;;;;;;8.88;7.67;;;;;;;28.57;60.79;100440.50;1713387;81;21059;-86
2021/08/26 09:53:25;;;;;;;11.40;7.78;;;;;;;28.67;63.29;100442.58;1677790;83;21071;-89
2021/08/26 09:56:04;;;;;;;9.95;7.87;;;;;;;28.78;62.88;100446.27;1680443;83;22131;-89
2021/08/26 09:58:36;;;;;;;13.78;8.98;;;;;;;28.92;60.76;100445.45;1685849;82;21061;-89
2021/08/26 10:01:16;;;;;;;10.08;8.50;;;;;;;29.01;57.73;100441.83;1655057;83;21220;-88
2021/08/26 10:03:44;;;;;;;10.80;8.40;;;;;;;29.05;57.46;100434.41;1621042;84;21628;-86
2021/08/26 10:06:12;;;;;;;8.55;7.75;;;;;;;29.10;56.34;100437.70;1653216;84;21130;-89
2021/08/26 10:08:46;;;;;;;10.70;7.83;;;;;;;29.10;55.76;100438.50;1712029;82;21200;-87
2021/08/26 10:11:19;;;;;;;12.58;9.23;;;;;;;29.11;57.05;100435.30;1660057;81;21046;-88
2021/08/26 10:13:49;;;;;;;11.05;9.28;;;;;;;29.11;56.20;100435.30;1653555;84;21035;-89
2021/08/26 10:16:16;;;;;;;8.98;8.03;;;;;;;29.16;55.33;100431.90;1654307;83;21078;-86
2021/08/26 10:18:44;;;;;;;10.75;8.60;;;;;;;29.28;56.21;100428.05;1677547;83;21011;-86
2021/08/26 10:21:11;;;;;;;11.05;9.80;;;;;;;29.45;54.41;100424.56;1635802;85;21219;-86
2021/08/26 10:23:42;;;;;;;9.65;8.75;;;;;;;29.60;54.33;100425.33;1682925;82;21126;-87
2021/08/26 10:26:15;;;;;;;9.83;8.65;;;;;;;29.58;51.26;100421.56;1709157;82;21557;-92
2021/08/26 10:28:43;;;;;;;9.45;8.50;;;;;;;29.39;51.65;100425.05;1682830;81;21046;-87
2021/08/26 10:31:34;;;;;;;10.43;9.35;;;;;;;29.14;52.50;100419.26;1654220;83;21174;-90
2021/08/26 10:34:26;;;;;;;10.32;9.05;;;;;;;28.98;53.09;100420.87;1709936;81;21065;-87
2021/08/26 10:37:02;;;;;;;9.35;8.40;;;;;;;28.96;53.55;100417.90;1710155;81;21030;-93
2021/08/26 10:39:37;;;;;;;9.50;8.30;;;;;;;29.08;55.34;100408.98;1666194;82;21175;-90
2021/08/26 10:42:32;;;;;;;11.28;9.53;;;;;;;29.19;53.79;100406.75;1630010;84;21637;-87
2021/08/26 10:45:19;;;;;;;9.43;8.45;;;;;;;29.22;52.90;100402.77;1653683;83;21228;-89
2021/08/26 10:47:55;;;;;;;13.35;9.53;;;;;;;29.24;55.14;100402.80;1630777;84;21039;-90
2021/08/26 10:50:32;;;;;;;8.95;8.08;;;;;;;29.31;56.82;100399.13;1637637;85;21051;-89
2021/08/26 10:53:12;;;;;;;11.95;9.75;;;;;;;29.41;57.16;100396.09;1633532;84;21086;-89
2021/08/26 10:55:50;;;;;;;12.63;10.80;;;;;;;29.52;50.50;100389.03;1611262;85;21098;-90
2021/08/26 10:58:33;;;;;;;11.38;10.00;;;;;;;29.61;53.01;100390.74;1663549;85;21647;-87
2021/08/26 11:01:04;;;;;;;15.03;10.10;;;;;;;29.71;54.83;100387.38;1691470;83;21075;-87
2021/08/26 11:03:46;;;;;;;15.48;10.43;;;;;;;29.78;51.53;100392.02;1698003;83;21097;-89
2021/08/26 11:06:32;;;;;;;13.05;11.12;;;;;;;29.77;50.51;100390.39;1675828;84;21336;-87
2021/08/26 11:09:19;;;;;;;14.65;10.95;;;;;;;29.73;48.50;100390.63;1646858;84;21047;-85
2021/08/26 11:11:49;;;;;;;13.50;11.85;;;;;;;29.65;53.26;100387.83;1697148;84;21035;-86
2021/08/26 11:14:22;;;;;;;12.78;9.95;;;;;;;29.68;52.64;100392.70;1654291;83;21054;-87
2021/08/26 11:16:55;;;;;;;11.90;10.40;;;;;;;29.70;49.17;100387.09;1677373;83;21110;-86
2021/08/26 11:19:34;;;;;;;15.13;12.88;;;;;;;29.62;49.77;100385.66;1670504;83;21056;-85
2021/08/26 11:22:06;;;;;;;17.95;13.50;;;;;;;29.43;49.80;100385.94;1699378;82;21128;-83
2021/08/26 11:24:41;;;;;;;17.65;13.55;;;;;;;29.18;48.84;100384.20;1695400;83;21116;-84